Airfield :
LOGIN :

Register | Disclaimer

   EN    FR    IT 

 










Legend :    VFR   Marginal VFR   IFR   Intensive IFR   Very Intensive IFR
Visi :
Ceiling :
>= 8 km
>= 3000ft
5 to 8 km
1000 to 3000 ft
1500m to 5 km
500 to 1000 ft
800 to 1500m
200 to 500 ft
< 800m
< 200 ft
Symbols :   Thunderstorms  Fog  Heavy snow  Heavy precipitations  Wind > 20 kt
SIGMETs :     Misc.  Thunderstorms  Icing  Turbulence  Mountain Waves  Volcanic Ashes







- Airport Elevation : 502 ft
- IATA code : ORK


EICK - Cork

CURRENT METAR :
  • 111230Z 16019KT 9999 -RA FEW006 BKN010 BKN014 10/08 Q1014 NOSIG

EXPIRED METARs :
  • 111200Z 16018KT 9999 FEW006 BKN010 BKN015 10/08 Q1015 NOSIG
  • 111130Z 17017KT 9999 FEW006 BKN010 BKN015 09/08 Q1015 NOSIG
  • 111100Z 14016KT 9999 SCT006 BKN010 BKN015 09/09 Q1015 NOSIG
  • 111030Z 16016KT 9999 -DZ BKN006 OVC008 09/09 Q1016 TEMPO 3000
  • 111000Z 15018KT 9999 -DZ OVC006 09/09 Q1016 TEMPO 3000

TAF TAF EICK
Valid from the 11 at 12:00 until the 12 at 12:00 UTC


111100Z 1112/1212 16016KT 9999 SCT006 BKN010
TEMPO 1112/1117 16018G30KT 3000 -DZ BR BKN003
BECMG 1115/1117 9999 FEW008 BKN020
TEMPO 1115/1117 RA
TEMPO 1117/1119 25010KT 4000 -RA BKN008
BECMG 1119/1121 31008KT
PROB40
TEMPO 1122/1204 4000 BR
BECMG 1200/1203 VRB03KT
BECMG 1207/1210 15013KT
PROB30
TEMPO 1207/1212 4000 -RA BKN005
No reported NOTAMs for that airfield.



MET'MAP, your aeronautical weather chart ! - Copyright ORBIFLY December 2007 - Disclaimer

ORBIFLY MET'MAP TEAM :

Programming & Development : Alexandra Zaïnal
Concept & Development : Baudouin d'Aumeries
Co-Development & Prog : Marc-Olivier Méhu
Technical & hardware support : Manuel Goepfert

Contact : metmap@orbifly.com




SOURCES & CREDITS :

   NOAA